Time;durP1;ratioP1;P1;durP2;ratioP2;P2;SDS_P1;SDS_P2;PMS_P1;PMS_P2;Temp;Humidity;BMP_temperature;BMP_pressure;BME280_temperature;BME280_humidity;BME280_pressure;Samples;Min_cycle;Max_cycle;Signal;HPM_P1;HPM_P2
2021/11/17 02:27:14;;;;;;;3.60;3.15;;;12.40;96.70;;;;;;4863006;29;20501;-74
2021/11/17 02:29:55;;;;;;;4.32;3.05;;;12.40;96.70;;;;;;4864929;29;20053;-74
2021/11/17 02:32:48;;;;;;;5.13;3.38;;;12.30;96.70;;;;;;4871130;29;20052;-74
2021/11/17 02:35:38;;;;;;;6.00;3.55;;;12.20;96.70;;;;;;4887315;29;20068;-74
2021/11/17 02:38:26;;;;;;;3.83;3.35;;;12.30;96.70;;;;;;4884094;29;20055;-74
2021/11/17 02:41:18;;;;;;;5.00;3.40;;;12.30;96.70;;;;;;4870337;29;20523;-75
2021/11/17 02:44:08;;;;;;;4.28;3.03;;;12.30;96.70;;;;;;4884843;29;20053;-74
2021/11/17 02:46:51;;;;;;;4.30;3.00;;;12.20;96.70;;;;;;4883693;29;20444;-74
2021/11/17 02:49:42;;;;;;;2.83;2.50;;;12.20;96.70;;;;;;4889107;29;20053;-74
2021/11/17 02:52:25;;;;;;;3.40;2.55;;;12.20;96.70;;;;;;4872143;29;20591;-74
2021/11/17 02:55:17;;;;;;;4.07;2.47;;;12.20;96.70;;;;;;4890450;29;20100;-74
2021/11/17 02:57:59;;;;;;;2.75;2.38;;;12.20;96.70;;;;;;4888646;29;20047;-74
2021/11/17 03:00:49;;;;;;;3.45;2.28;;;12.20;96.70;;;;;;4873295;29;20053;-74
2021/11/17 03:03:30;;;;;;;3.25;2.42;;;12.10;96.70;;;;;;4886096;29;20101;-74
2021/11/17 03:06:17;;;;;;;3.15;2.35;;;12.10;96.70;;;;;;4877688;29;20067;-74
2021/11/17 03:08:54;;;;;;;;;;;12.10;96.70;;;;;;4888025;29;20156;-74
2021/11/17 03:11:38;;;;;;;2.50;2.10;;;11.90;96.70;;;;;;4873902;29;20383;-74
2021/11/17 03:14:25;;;;;;;2.10;1.80;;;11.90;96.70;;;;;;4872043;29;20048;-74
2021/11/17 03:17:09;;;;;;;4.22;1.90;;;11.90;96.70;;;;;;4892451;29;20497;-74
2021/11/17 03:19:49;;;;;;;3.58;2.05;;;11.90;96.70;;;;;;4872437;29;20072;-74
2021/11/17 03:22:33;;;;;;;3.83;2.20;;;11.80;96.70;;;;;;4874326;29;20048;-74
2021/11/17 03:25:28;;;;;;;5.00;2.45;;;11.90;96.70;;;;;;4874760;29;20052;-74
2021/11/17 03:28:09;;;;;;;2.88;2.03;;;11.90;96.70;;;;;;4886858;29;20040;-74
2021/11/17 03:31:06;;;;;;;3.08;2.10;;;11.80;96.70;;;;;;4874001;29;20127;-74
2021/11/17 03:33:52;;;;;;;2.38;1.98;;;11.80;96.70;;;;;;4887187;29;20037;-74
2021/11/17 03:36:51;;;;;;;2.22;1.80;;;11.80;96.70;;;;;;4888089;29;20044;-74
2021/11/17 03:39:47;;;;;;;2.63;2.10;;;11.80;96.70;;;;;;4888274;29;20048;-74
2021/11/17 03:42:29;;;;;;;2.00;1.63;;;11.80;96.70;;;;;;4869805;29;20060;-75
2021/11/17 03:45:25;;;;;;;2.38;2.05;;;11.80;96.70;;;;;;4875154;29;20056;-74
2021/11/17 03:48:13;;;;;;;2.47;1.75;;;11.80;96.70;;;;;;4883137;29;20139;-74
2021/11/17 03:50:55;;;;;;;2.78;2.17;;;11.80;96.70;;;;;;4883844;29;20452;-74
2021/11/17 03:53:38;;;;;;;2.83;1.80;;;11.80;96.70;;;;;;4889380;29;20048;-74
2021/11/17 03:56:20;;;;;;;3.90;2.10;;;11.80;96.70;;;;;;4883552;29;20574;-74
2021/11/17 03:59:01;;;;;;;4.18;2.25;;;11.80;96.70;;;;;;4890380;29;20454;-74
2021/11/17 04:01:48;;;;;;;2.83;2.20;;;11.80;96.70;;;;;;4889325;29;20113;-74
2021/11/17 04:04:32;;;;;;;2.35;1.92;;;11.70;96.70;;;;;;4890632;29;20579;-74
2021/11/17 04:07:25;;;;;;;2.25;1.77;;;11.70;96.70;;;;;;4887274;29;20470;-74
2021/11/17 04:10:07;;;;;;;2.72;2.15;;;11.70;96.70;;;;;;4873539;29;20044;-74
2021/11/17 04:12:44;;;;;;;2.33;1.90;;;11.80;96.70;;;;;;4875358;29;20072;-74
2021/11/17 04:15:30;;;;;;;2.15;1.90;;;11.80;96.70;;;;;;4888992;29;20135;-74
2021/11/17 04:18:08;;;;;;;2.75;1.80;;;11.80;96.70;;;;;;4873083;29;20076;-74
2021/11/17 04:20:56;;;;;;;2.78;1.70;;;11.80;96.70;;;;;;4887872;29;20044;-74
2021/11/17 04:23:44;;;;;;;2.00;1.70;;;11.80;96.70;;;;;;4888191;29;20057;-74
2021/11/17 04:26:32;;;;;;;2.28;1.90;;;11.80;96.70;;;;;;4872481;29;20128;-74
2021/11/17 04:29:15;;;;;;;4.03;2.00;;;11.80;96.70;;;;;;4897471;29;20155;-75
2021/11/17 04:32:13;;;;;;;2.67;1.88;;;11.80;96.70;;;;;;4889891;29;20051;-75
2021/11/17 04:35:19;;;;;;;2.80;2.08;;;11.60;96.70;;;;;;4885685;29;20049;-75
2021/11/17 04:38:26;;;;;;;2.50;2.15;;;11.60;96.70;;;;;;4866539;29;20057;-75
2021/11/17 04:41:27;;;;;;;4.35;2.50;;;11.70;96.70;;;;;;4872266;29;20069;-75
2021/11/17 04:44:27;;;;;;;2.30;2.08;;;11.70;96.70;;;;;;4853406;29;20470;-74
2021/11/17 04:47:09;;;;;;;2.55;1.80;;;11.70;96.70;;;;;;4836157;29;20101;-74
2021/11/17 04:49:59;;;;;;;3.25;2.13;;;11.60;96.70;;;;;;4857053;29;20559;-74
2021/11/17 04:52:43;;;;;;;3.08;1.77;;;11.60;96.70;;;;;;4870569;29;20083;-75
2021/11/17 04:55:50;;;;;;;2.67;2.28;;;11.50;96.70;;;;;;4868123;29;20045;-75
2021/11/17 04:58:33;;;;;;;3.20;2.40;;;11.60;96.70;;;;;;4826562;29;20055;-75
2021/11/17 05:01:32;;;;;;;2.70;2.15;;;11.60;96.70;;;;;;4851749;29;20041;-75
2021/11/17 05:04:16;;;;;;;3.35;2.30;;;11.60;96.70;;;;;;4869730;29;20049;-75
2021/11/17 05:06:59;;;;;;;2.53;2.00;;;11.70;96.70;;;;;;4868008;29;20147;-75
2021/11/17 05:09:36;;;;;;;2.20;1.90;;;11.70;96.70;;;;;;4867801;29;20049;-75
2021/11/17 05:12:16;;;;;;;2.78;2.10;;;11.70;96.70;;;;;;4868595;29;20043;-75
2021/11/17 05:14:57;;;;;;;2.75;2.30;;;11.50;96.70;;;;;;4837217;29;20069;-74
2021/11/17 05:17:36;;;;;;;4.30;2.38;;;11.40;96.70;;;;;;4850049;29;20042;-75
2021/11/17 05:20:19;;;;;;;3.53;2.22;;;11.50;96.70;;;;;;4836486;29;20053;-75
2021/11/17 05:23:06;;;;;;;3.08;2.55;;;11.40;96.70;;;;;;4849354;29;20093;-74
2021/11/17 05:25:49;;;;;;;3.17;2.45;;;11.40;96.70;;;;;;4847624;29;20051;-74
2021/11/17 05:28:33;;;;;;;3.90;2.80;;;11.40;96.70;;;;;;4870330;29;20159;-75
2021/11/17 05:31:16;;;;;;;4.57;2.58;;;11.40;96.70;;;;;;4869739;29;20045;-75
2021/11/17 05:33:57;;;;;;;5.22;2.75;;;11.40;96.70;;;;;;4850759;29;20052;-74
2021/11/17 05:36:37;;;;;;;2.70;2.40;;;11.30;96.70;;;;;;4849820;29;20140;-74
2021/11/17 05:39:24;;;;;;;3.10;2.63;;;11.30;96.70;;;;;;4859837;29;20052;-74
2021/11/17 05:42:06;;;;;;;3.20;2.70;;;11.40;96.70;;;;;;4864050;29;20045;-75
2021/11/17 05:44:46;;;;;;;4.82;3.08;;;11.40;96.70;;;;;;4849974;29;20052;-74
2021/11/17 05:47:28;;;;;;;4.00;2.55;;;11.30;96.70;;;;;;4867248;29;20055;-73
2021/11/17 05:50:11;;;;;;;3.13;2.50;;;11.30;96.70;;;;;;4883680;29;20052;-74
2021/11/17 05:52:55;;;;;;;4.97;2.47;;;11.40;96.70;;;;;;4853272;29;20048;-74
2021/11/17 05:55:50;;;;;;;3.22;2.67;;;11.50;96.70;;;;;;4850804;29;20102;-74
2021/11/17 05:58:46;;;;;;;3.17;2.87;;;11.40;96.70;;;;;;4864047;29;20428;-74
2021/11/17 06:01:33;;;;;;;4.47;2.72;;;11.40;96.70;;;;;;4877717;29;20051;-74
2021/11/17 06:04:02;;;;;;;5.15;3.03;;;11.40;96.70;;;;;;4863744;29;20195;-74
2021/11/17 06:06:36;;;;;;;4.85;3.20;;;11.50;96.70;;;;;;4865167;29;20104;-74
2021/11/17 06:09:06;;;;;;;4.38;2.85;;;11.50;96.70;;;;;;4882862;29;20518;-73
2021/11/17 06:11:39;;;;;;;2.88;2.42;;;11.50;96.70;;;;;;4868444;29;20044;-75
2021/11/17 06:14:09;;;;;;;3.97;3.22;;;11.50;96.70;;;;;;4881461;29;20436;-74
2021/11/17 06:16:43;;;;;;;5.93;3.35;;;11.60;96.70;;;;;;4846887;29;20064;-74
2021/11/17 06:19:12;;;;;;;4.18;2.83;;;11.50;96.70;;;;;;4866027;29;20045;-74
2021/11/17 06:21:43;;;;;;;3.75;3.08;;;11.60;96.70;;;;;;4850778;29;20056;-74
2021/11/17 06:24:13;;;;;;;4.15;3.00;;;11.60;96.70;;;;;;4871376;29;20529;-74
2021/11/17 06:26:45;;;;;;;4.15;3.00;;;11.50;96.70;;;;;;4870867;29;20051;-74
2021/11/17 06:29:16;;;;;;;4.20;2.72;;;11.50;96.70;;;;;;4870888;29;20067;-74
2021/11/17 06:31:45;;;;;;;3.75;2.88;;;11.50;96.70;;;;;;4887648;29;20617;-74
2021/11/17 06:34:31;;;;;;;3.83;3.05;;;11.60;96.70;;;;;;4860241;29;20097;-74
2021/11/17 06:37:00;;;;;;;3.95;2.90;;;11.60;96.70;;;;;;4850054;29;20053;-74
2021/11/17 06:39:30;;;;;;;4.18;3.28;;;11.60;96.70;;;;;;4882406;29;20098;-75
2021/11/17 06:42:01;;;;;;;5.85;3.53;;;11.50;96.70;;;;;;4889714;29;20510;-74
2021/11/17 06:44:31;;;;;;;4.63;3.42;;;11.50;96.70;;;;;;4876470;29;20045;-75
2021/11/17 06:46:59;;;;;;;3.45;3.00;;;11.40;96.70;;;;;;4872846;29;20123;-75
2021/11/17 06:49:27;;;;;;;4.65;2.90;;;11.50;96.70;;;;;;4875165;29;20044;-74
2021/11/17 06:51:56;;;;;;;5.00;3.30;;;11.60;96.70;;;;;;4891231;29;20052;-74
2021/11/17 06:54:24;;;;;;;3.20;2.70;;;11.60;96.70;;;;;;4874535;29;20084;-73
2021/11/17 06:56:52;;;;;;;3.95;2.97;;;11.60;96.70;;;;;;4874777;29;20415;-74
2021/11/17 06:59:23;;;;;;;5.60;3.47;;;11.60;96.70;;;;;;4888859;29;20056;-73
2021/11/17 07:01:51;;;;;;;5.13;2.95;;;11.60;96.70;;;;;;4892149;29;20048;-74
2021/11/17 07:04:20;;;;;;;5.35;3.25;;;11.70;96.70;;;;;;4882967;29;20105;-74
2021/11/17 07:06:49;;;;;;;4.95;3.05;;;11.70;96.70;;;;;;4872252;29;20068;-74
2021/11/17 07:09:17;;;;;;;3.95;2.90;;;11.70;96.70;;;;;;4895323;29;20034;-75
2021/11/17 07:11:45;;;;;;;8.05;3.55;;;11.70;96.70;;;;;;4887005;29;20112;-75
2021/11/17 07:14:13;;;;;;;3.92;2.90;;;11.80;96.70;;;;;;4873441;29;20100;-75
2021/11/17 07:16:43;;;;;;;5.60;3.53;;;11.80;96.70;;;;;;4890275;29;20063;-75
2021/11/17 07:19:12;;;;;;;4.90;3.47;;;11.80;96.70;;;;;;4873978;29;20412;-75
2021/11/17 07:21:42;;;;;;;7.70;4.35;;;11.90;96.70;;;;;;4879283;29;20673;-76
2021/11/17 07:24:10;;;;;;;5.13;4.00;;;12.00;96.70;;;;;;4871511;29;20048;-76
2021/11/17 07:26:38;;;;;;;6.40;3.80;;;12.00;96.70;;;;;;4883393;29;20586;-75
2021/11/17 07:29:07;;;;;;;5.38;3.50;;;12.10;96.70;;;;;;4885691;29;20450;-76
2021/11/17 07:31:35;;;;;;;6.75;4.30;;;12.10;96.70;;;;;;4876194;29;20432;-75
2021/11/17 07:34:05;;;;;;;6.35;4.18;;;12.20;96.70;;;;;;4896627;29;20127;-75
2021/11/17 07:36:33;;;;;;;7.28;3.95;;;12.20;96.70;;;;;;4895544;29;20498;-75
2021/11/17 07:39:02;;;;;;;5.97;4.28;;;12.20;96.70;;;;;;4879434;29;20611;-76
2021/11/17 07:41:30;;;;;;;4.75;3.88;;;12.30;96.70;;;;;;4897679;29;20076;-75
2021/11/17 07:43:59;;;;;;;8.50;3.97;;;12.30;96.70;;;;;;4871762;29;20139;-75
2021/11/17 07:46:27;;;;;;;8.13;4.78;;;12.40;96.70;;;;;;4875581;29;20045;-76
2021/11/17 07:48:57;;;;;;;6.20;5.22;;;12.40;96.70;;;;;;4886738;29;20052;-76
2021/11/17 07:51:27;;;;;;;7.15;4.88;;;12.50;96.70;;;;;;4871968;29;20044;-75
2021/11/17 07:53:56;;;;;;;6.00;4.05;;;12.50;96.70;;;;;;4889669;29;20096;-76
2021/11/17 07:56:25;;;;;;;5.20;3.65;;;12.60;96.70;;;;;;4888527;29;20048;-76
2021/11/17 07:58:53;;;;;;;4.93;3.78;;;12.70;96.70;;;;;;4884648;29;20045;-76
2021/11/17 08:01:21;;;;;;;6.00;3.65;;;12.70;96.70;;;;;;4864596;29;20469;-77
2021/11/17 08:03:50;;;;;;;3.70;3.20;;;12.80;96.70;;;;;;4867847;29;20052;-76
2021/11/17 08:06:22;;;;;;;4.15;3.40;;;12.90;96.70;;;;;;4889167;29;20088;-76
2021/11/17 08:08:53;;;;;;;3.53;3.03;;;12.90;96.70;;;;;;4873678;29;20426;-75
2021/11/17 08:11:22;;;;;;;4.70;3.60;;;13.00;96.70;;;;;;4869778;29;20061;-75
2021/11/17 08:13:50;;;;;;;4.13;3.08;;;13.10;96.70;;;;;;4867241;29;20109;-76
2021/11/17 08:16:19;;;;;;;3.90;3.25;;;13.20;96.70;;;;;;4888489;29;20136;-76
2021/11/17 08:18:47;;;;;;;3.92;3.38;;;13.20;96.70;;;;;;4888315;29;20415;-76
2021/11/17 08:21:16;;;;;;;4.10;3.22;;;13.30;96.70;;;;;;4873880;29;20408;-76
2021/11/17 08:23:44;;;;;;;3.95;3.10;;;13.40;96.70;;;;;;4872219;29;20052;-76
2021/11/17 08:26:17;;;;;;;3.65;3.00;;;13.50;96.70;;;;;;4869931;29;20076;-75
2021/11/17 08:28:45;;;;;;;3.80;3.28;;;13.50;96.70;;;;;;4888631;29;20068;-76
2021/11/17 08:31:14;;;;;;;3.67;3.28;;;13.60;96.70;;;;;;4886727;29;20107;-76
2021/11/17 08:33:44;;;;;;;4.63;2.78;;;13.70;96.70;;;;;;4888833;29;20054;-75
2021/11/17 08:36:13;;;;;;;3.50;2.80;;;13.70;96.70;;;;;;4886586;29;20043;-76
2021/11/17 08:38:41;;;;;;;3.20;2.63;;;13.80;96.70;;;;;;4872190;29;20057;-76
2021/11/17 08:41:11;;;;;;;3.30;2.42;;;13.90;96.70;;;;;;4871251;29;20147;-75
2021/11/17 08:43:41;;;;;;;2.85;2.20;;;13.90;96.70;;;;;;4887970;29;20070;-75
2021/11/17 08:46:10;;;;;;;3.47;2.42;;;14.00;96.70;;;;;;4869992;29;20043;-75
2021/11/17 08:48:38;;;;;;;3.75;2.10;;;14.00;96.70;;;;;;4887845;29;20059;-75
2021/11/17 08:51:08;;;;;;;2.05;1.73;;;14.10;96.70;;;;;;4888349;29;20399;-75
2021/11/17 08:53:40;;;;;;;3.35;2.10;;;14.10;96.70;;;;;;4885762;29;20131;-76
2021/11/17 08:56:09;;;;;;;3.28;2.30;;;14.20;96.70;;;;;;4874217;29;20072;-76
2021/11/17 08:58:40;;;;;;;3.97;2.42;;;14.30;96.70;;;;;;4870052;29;20140;-76
2021/11/17 09:01:09;;;;;;;3.30;2.50;;;14.30;96.70;;;;;;4869977;29;20041;-76
2021/11/17 09:03:38;;;;;;;2.80;2.40;;;14.40;96.70;;;;;;4887756;29;20053;-76
2021/11/17 09:06:09;;;;;;;3.03;2.13;;;14.40;96.70;;;;;;4885225;29;20549;-75
2021/11/17 09:08:38;;;;;;;3.05;2.30;;;14.50;96.70;;;;;;4872037;29;20052;-75
2021/11/17 09:11:09;;;;;;;2.92;2.28;;;14.50;96.70;;;;;;4869741;29;20046;-75
2021/11/17 09:13:39;;;;;;;2.80;2.10;;;14.50;96.70;;;;;;4888418;29;20131;-76
2021/11/17 09:16:09;;;;;;;3.70;2.30;;;14.60;96.70;;;;;;4857694;29;20052;-75
2021/11/17 09:18:38;;;;;;;2.40;2.20;;;14.60;96.70;;;;;;4872249;29;20537;-76
2021/11/17 09:21:10;;;;;;;3.13;1.92;;;14.60;96.70;;;;;;4871408;29;20041;-75
2021/11/17 09:23:38;;;;;;;2.45;1.92;;;14.60;96.70;;;;;;4869705;29;20135;-75
2021/11/17 09:26:08;;;;;;;2.72;2.10;;;14.70;96.70;;;;;;4890583;29;20077;-76
2021/11/17 09:28:37;;;;;;;3.88;2.17;;;14.80;96.70;;;;;;4887866;29;20045;-76
2021/11/17 09:31:06;;;;;;;2.45;1.98;;;14.90;96.70;;;;;;4884707;29;20048;-76
2021/11/17 09:33:45;;;;;;;;;;;14.80;96.70;;;;;;4886805;29;20053;-76
2021/11/17 09:36:14;;;;;;;2.20;2.00;;;14.90;96.70;;;;;;4873087;29;19971;-75
2021/11/17 09:38:43;;;;;;;2.47;1.80;;;14.90;96.70;;;;;;4842595;29;20061;-76
2021/11/17 09:41:15;;;;;;;2.78;1.85;;;14.80;96.70;;;;;;4868892;29;20191;-76
2021/11/17 09:43:47;;;;;;;2.00;1.77;;;14.90;96.70;;;;;;4863476;29;20155;-76
2021/11/17 09:46:19;;;;;;;7.47;2.00;;;14.90;96.70;;;;;;4868138;29;20229;-76
2021/11/17 09:48:52;;;;;;;3.08;1.95;;;15.00;96.70;;;;;;4870002;29;20055;-76
2021/11/17 09:51:23;;;;;;;1.90;1.70;;;15.00;96.70;;;;;;4852836;29;20081;-76
2021/11/17 09:53:58;;;;;;;5.88;2.17;;;15.10;96.70;;;;;;4850036;29;20047;-76
2021/11/17 09:56:30;;;;;;;2.08;1.80;;;15.20;96.70;;;;;;4852760;29;20048;-75
2021/11/17 09:59:04;;;;;;;5.10;2.47;;;15.30;96.70;;;;;;4864201;29;20069;-76
2021/11/17 10:01:39;;;;;;;2.75;1.75;;;15.30;96.70;;;;;;4866268;29;20489;-76
2021/11/17 10:04:14;;;;;;;2.53;1.80;;;15.40;96.70;;;;;;4867787;29;20496;-75
2021/11/17 10:14:59;;;;;;;2.40;1.80;;;15.70;96.70;;;;;;4869560;29;20125;-75
2021/11/17 10:17:40;;;;;;;3.78;2.17;;;15.80;96.70;;;;;;4854526;29;20061;-76
2021/11/17 10:20:17;;;;;;;2.42;1.98;;;15.80;96.70;;;;;;4866477;29;20138;-76
2021/11/17 10:22:49;;;;;;;2.85;2.05;;;15.90;96.70;;;;;;4851119;29;20067;-76
2021/11/17 10:25:19;;;;;;;54.70;7.00;;;16.00;96.70;;;;;;4852837;29;20051;-76
2021/11/17 10:27:54;;;;;;;29.70;4.20;;;16.10;96.70;;;;;;4867560;29;20129;-76
2021/11/17 10:30:30;;;;;;;14.52;3.20;;;16.10;96.70;;;;;;4851830;29;20052;-75
2021/11/17 10:33:06;;;;;;;5.95;2.15;;;16.10;96.70;;;;;;4869761;29;20523;-76
2021/11/17 10:35:38;;;;;;;5.72;2.20;;;16.20;96.70;;;;;;4868726;29;20055;-76
2021/11/17 10:38:11;;;;;;;3.75;2.25;;;16.20;96.70;;;;;;4859897;29;20139;-76
2021/11/17 10:40:47;;;;;;;3.38;2.20;;;16.30;96.70;;;;;;4867360;29;20144;-76
2021/11/17 10:43:20;;;;;;;6.43;2.47;;;16.30;96.70;;;;;;4882098;29;20045;-76
2021/11/17 10:46:09;;;;;;;3.97;2.22;;;16.30;96.70;;;;;;4871266;29;20684;-76
2021/11/17 10:48:40;;;;;;;5.05;2.28;;;16.20;96.70;;;;;;4888403;29;20511;-76
2021/11/17 10:51:15;;;;;;;4.25;1.80;;;16.30;96.70;;;;;;4882981;29;20062;-76
2021/11/17 10:53:48;;;;;;;3.33;1.70;;;16.30;96.70;;;;;;4870644;29;20068;-77
2021/11/17 10:56:19;;;;;;;3.33;2.10;;;16.40;96.70;;;;;;4886755;29;20503;-77
2021/11/17 10:58:50;;;;;;;3.80;2.05;;;16.50;96.70;;;;;;4882210;29;20060;-76
2021/11/17 11:01:21;;;;;;;5.28;2.00;;;16.50;96.70;;;;;;4859261;29;20095;-76
2021/11/17 11:03:52;;;;;;;3.13;2.08;;;16.60;96.70;;;;;;4885376;29;20639;-76
2021/11/17 11:06:26;;;;;;;2.53;1.90;;;16.70;96.70;;;;;;4886713;29;20525;-76
2021/11/17 11:08:59;;;;;;;2.65;1.90;;;16.90;96.70;;;;;;4869291;29;20598;-76
2021/11/17 11:11:29;;;;;;;2.33;1.92;;;17.00;96.70;;;;;;4892847;29;20597;-77
2021/11/17 11:14:01;;;;;;;2.55;2.00;;;17.00;96.70;;;;;;4875008;29;20045;-76
2021/11/17 11:16:39;;;;;;;3.13;2.00;;;17.00;96.70;;;;;;4871804;29;20056;-76
2021/11/17 11:19:30;;;;;;;2.97;1.98;;;16.80;96.70;;;;;;4891832;29;21023;-77
2021/11/17 11:22:15;;;;;;;2.10;1.73;;;16.80;96.70;;;;;;4868965;29;20071;-76
2021/11/17 11:24:46;;;;;;;2.10;1.67;;;16.90;96.70;;;;;;4889456;29;20080;-76
2021/11/17 11:27:27;;;;;;;2.20;1.90;;;17.00;96.70;;;;;;4890341;29;20535;-77
2021/11/17 11:30:40;;;;;;;2.28;1.85;;;17.10;96.70;;;;;;4888097;29;20079;-76
2021/11/17 11:33:25;;;;;;;2.80;2.10;;;17.00;96.70;;;;;;4873796;29;20044;-76
2021/11/17 11:36:36;;;;;;;2.05;1.60;;;17.10;96.70;;;;;;4885128;29;20048;-75
2021/11/17 11:39:38;;;;;;;2.95;1.63;;;17.10;96.70;;;;;;4873651;29;20158;-76
2021/11/17 11:42:24;;;;;;;1.77;1.50;;;17.30;96.70;;;;;;4890622;29;20055;-76
2021/11/17 11:44:56;;;;;;;3.38;2.08;;;17.20;96.70;;;;;;4888461;29;20120;-76
2021/11/17 11:47:51;;;;;;;2.65;1.70;;;17.10;96.70;;;;;;4871640;29;20059;-76
2021/11/17 11:50:52;;;;;;;2.00;1.70;;;17.10;96.70;;;;;;4868952;29;20056;-76
2021/11/17 11:53:25;;;;;;;4.45;1.95;;;17.20;96.70;;;;;;4883106;29;20072;-77
2021/11/17 11:56:14;;;;;;;2.28;1.70;;;17.30;96.70;;;;;;4888553;29;20103;-76
2021/11/17 11:58:42;;;;;;;3.33;1.95;;;17.40;96.70;;;;;;4871159;29;20227;-75
2021/11/17 12:01:18;;;;;;;2.15;1.95;;;17.60;96.70;;;;;;4888178;29;20039;-76
2021/11/17 12:03:51;;;;;;;3.28;1.63;;;17.80;96.70;;;;;;4870823;29;20056;-76
2021/11/17 12:06:25;;;;;;;2.40;1.92;;;17.90;96.70;;;;;;4872008;29;20131;-76
2021/11/17 12:09:17;;;;;;;2.65;1.70;;;18.00;96.70;;;;;;4874503;29;20048;-76
2021/11/17 12:11:53;;;;;;;2.67;1.73;;;18.10;96.70;;;;;;4888190;29;20044;-76
2021/11/17 12:14:39;;;;;;;2.95;2.00;;;18.00;96.70;;;;;;4882529;29;20080;-76
2021/11/17 12:17:08;;;;;;;1.60;1.45;;;17.90;96.70;;;;;;4870962;29;20087;-76
2021/11/17 12:19:45;;;;;;;2.72;1.65;;;18.00;96.70;;;;;;4871106;29;20136;-76
2021/11/17 12:22:18;;;;;;;2.22;1.70;;;17.90;96.70;;;;;;4886226;29;20412;-75
2021/11/17 12:24:49;;;;;;;3.20;1.58;;;18.00;96.70;;;;;;4881518;29;20052;-75
2021/11/17 12:27:20;;;;;;;2.65;1.90;;;18.00;96.70;;;;;;4885158;29;20058;-75
2021/11/17 12:29:56;;;;;;;2.35;1.80;;;18.10;96.70;;;;;;4888196;29;20051;-75
2021/11/17 12:32:29;;;;;;;2.65;1.70;;;18.20;96.70;;;;;;4888310;29;20049;-75
2021/11/17 12:35:05;;;;;;;2.88;1.98;;;18.30;96.70;;;;;;4891890;29;20527;-75
2021/11/17 12:37:37;;;;;;;7.70;2.17;;;18.20;96.70;;;;;;4887136;29;20059;-75
2021/11/17 12:40:08;;;;;;;4.97;2.05;;;18.20;96.70;;;;;;4871794;29;20827;-77
2021/11/17 12:42:40;;;;;;;1.92;1.50;;;18.20;96.70;;;;;;4871756;29;20122;-76
2021/11/17 12:45:18;;;;;;;3.53;1.30;;;18.20;96.70;;;;;;4889476;29;20051;-75
2021/11/17 12:47:50;;;;;;;3.47;1.90;;;18.20;96.70;;;;;;4885096;29;20096;-76
2021/11/17 12:50:22;;;;;;;4.30;1.92;;;18.30;96.70;;;;;;4864833;29;20040;-76
2021/11/17 12:52:54;;;;;;;2.17;1.83;;;18.30;96.70;;;;;;4883035;29;20041;-76
2021/11/17 12:55:29;;;;;;;3.17;1.95;;;18.30;96.70;;;;;;4884834;29;20506;-75
2021/11/17 12:58:04;;;;;;;2.15;1.50;;;18.30;96.70;;;;;;4857040;29;20464;-75
2021/11/17 13:00:44;;;;;;;2.63;1.70;;;18.30;96.70;;;;;;4871018;29;20045;-76
2021/11/17 13:03:28;;;;;;;2.38;1.90;;;18.30;96.70;;;;;;4889416;29;20044;-76
2021/11/17 13:06:04;;;;;;;5.60;2.78;;;18.30;96.70;;;;;;4889846;29;20063;-76
2021/11/17 13:08:34;;;;;;;2.50;1.90;;;18.30;96.70;;;;;;4870005;29;20784;-75
2021/11/17 13:11:09;;;;;;;5.45;2.30;;;18.20;96.70;;;;;;4874604;29;20036;-76
2021/11/17 13:13:46;;;;;;;4.18;1.90;;;18.20;96.70;;;;;;4889623;29;20631;-76
2021/11/17 13:16:20;;;;;;;2.30;1.50;;;18.20;96.70;;;;;;4872615;29;20045;-75
2021/11/17 13:18:56;;;;;;;1.92;1.73;;;18.30;96.70;;;;;;4871420;29;20144;-74
2021/11/17 13:21:29;;;;;;;;;;;18.20;96.70;;;;;;4871651;29;20392;-75
2021/11/17 13:24:35;;;;;;;3.35;2.28;;;18.20;96.70;;;;;;4873534;29;20030;-76
2021/11/17 13:27:36;;;;;;;2.47;1.63;;;18.20;96.70;;;;;;4870927;29;20062;-76
2021/11/17 13:30:28;;;;;;;3.28;1.83;;;18.10;96.70;;;;;;4885879;29;20045;-76
2021/11/17 13:32:56;;;;;;;2.70;1.33;;;18.00;96.70;;;;;;4868203;29;20372;-76
2021/11/17 13:35:32;;;;;;;2.53;1.80;;;18.00;96.70;;;;;;4873174;29;20198;-76
2021/11/17 13:38:12;;;;;;;2.17;1.45;;;18.00;96.70;;;;;;4849987;29;20147;-75
2021/11/17 13:40:42;;;;;;;2.42;1.45;;;18.00;96.70;;;;;;4866948;29;20627;-75
2021/11/17 13:43:11;;;;;;;3.33;1.58;;;18.00;96.70;;;;;;4853271;29;20052;-75
2021/11/17 13:45:43;;;;;;;2.35;1.48;;;18.00;96.70;;;;;;4851394;29;20056;-75
2021/11/17 13:48:12;;;;;;;2.15;1.80;;;17.90;96.70;;;;;;4852936;29;20572;-76
2021/11/17 13:50:42;;;;;;;2.17;1.45;;;17.80;96.70;;;;;;4854558;29;20179;-75
2021/11/17 13:53:12;;;;;;;2.05;1.75;;;17.80;96.70;;;;;;4867794;29;20664;-76
2021/11/17 13:55:43;;;;;;;2.22;1.55;;;17.80;96.70;;;;;;4867515;29;20416;-76
2021/11/17 13:58:11;;;;;;;1.90;1.42;;;17.80;96.70;;;;;;4868008;29;20152;-75
2021/11/17 14:00:42;;;;;;;1.85;1.50;;;17.70;96.70;;;;;;4844943;29;20041;-76
2021/11/17 14:03:14;;;;;;;2.00;1.30;;;17.70;96.70;;;;;;4869373;29;20045;-76
2021/11/17 14:05:46;;;;;;;3.25;1.80;;;17.70;96.70;;;;;;4852631;29;20100;-75
2021/11/17 14:08:14;;;;;;;2.22;1.98;;;17.70;96.70;;;;;;4854975;29;20052;-75
2021/11/17 14:10:43;;;;;;;2.45;1.70;;;17.70;96.70;;;;;;4869836;29;20041;-75
2021/11/17 14:13:11;;;;;;;4.65;2.00;;;17.70;96.70;;;;;;4855766;29;20514;-75
2021/11/17 14:15:41;;;;;;;4.10;2.20;;;17.70;96.70;;;;;;4866585;29;20049;-75
2021/11/17 14:18:11;;;;;;;4.43;2.13;;;17.70;96.70;;;;;;4851605;29;20149;-75
2021/11/17 14:20:39;;;;;;;2.35;1.70;;;17.70;96.70;;;;;;4844637;29;20092;-74
2021/11/17 14:23:08;;;;;;;4.45;2.42;;;17.70;96.70;;;;;;4867061;29;20041;-75
2021/11/17 14:25:36;;;;;;;4.32;2.28;;;17.70;96.70;;;;;;4867740;29;20097;-75
2021/11/17 14:28:07;;;;;;;3.55;2.20;;;17.60;96.70;;;;;;4867519;29;20670;-75
2021/11/17 14:30:40;;;;;;;3.55;2.50;;;17.60;96.70;;;;;;4871791;29;20124;-75
2021/11/17 14:33:13;;;;;;;3.97;2.33;;;17.60;96.70;;;;;;4852742;29;20575;-75
2021/11/17 14:35:41;;;;;;;3.35;2.15;;;17.50;96.70;;;;;;4865360;29;20041;-75
2021/11/17 14:38:15;;;;;;;4.72;2.60;;;17.50;96.70;;;;;;4872759;29;20047;-75
2021/11/17 14:40:44;;;;;;;4.03;3.20;;;17.50;96.70;;;;;;4870172;29;20041;-75
2021/11/17 14:43:12;;;;;;;5.78;3.30;;;17.50;96.70;;;;;;4868838;29;20127;-75
2021/11/17 14:45:41;;;;;;;4.97;3.72;;;17.50;96.70;;;;;;4867966;29;20547;-75
2021/11/17 14:48:10;;;;;;;7.95;5.00;;;17.50;96.70;;;;;;4891671;29;20544;-76
2021/11/17 14:50:38;;;;;;;6.65;5.35;;;17.40;96.70;;;;;;4871520;29;20503;-75
2021/11/17 14:53:24;;;;;;;6.53;4.28;;;17.40;96.70;;;;;;4874515;29;20598;-75
2021/11/17 14:55:52;;;;;;;5.15;3.70;;;17.30;96.70;;;;;;4887806;29;20474;-75
2021/11/17 14:58:20;;;;;;;5.10;3.13;;;17.30;96.70;;;;;;4890351;29;20467;-74
2021/11/17 15:00:52;;;;;;;5.05;3.53;;;17.20;96.70;;;;;;4872534;29;20128;-74
2021/11/17 15:03:34;;;;;;;4.32;3.25;;;17.20;96.70;;;;;;4875015;29;20057;-75
2021/11/17 15:06:03;;;;;;;5.75;3.85;;;17.20;96.70;;;;;;4875577;29;20320;-75
2021/11/17 15:08:31;;;;;;;5.10;3.70;;;17.20;96.70;;;;;;4874533;29;20160;-76
2021/11/17 15:10:59;;;;;;;7.15;4.20;;;17.10;96.70;;;;;;4874479;29;20054;-75
2021/11/17 15:13:27;;;;;;;4.88;3.70;;;17.10;96.70;;;;;;4876594;29;20549;-75
2021/11/17 15:15:56;;;;;;;5.90;3.63;;;17.20;96.70;;;;;;4887132;29;20155;-75
2021/11/17 15:18:27;;;;;;;6.90;3.53;;;17.30;96.70;;;;;;4892372;29;20100;-75
2021/11/17 15:20:56;;;;;;;3.80;2.92;;;17.40;96.70;;;;;;4886244;29;20055;-75
2021/11/17 15:23:26;;;;;;;5.28;3.22;;;17.80;96.70;;;;;;4870053;29;20120;-75
2021/11/17 15:25:54;;;;;;;6.00;3.65;;;18.00;96.70;;;;;;4891998;29;20068;-75
2021/11/17 15:28:25;;;;;;;6.85;3.33;;;17.90;96.70;;;;;;4876091;29;20085;-75
2021/11/17 15:30:56;;;;;;;5.38;3.50;;;17.80;96.70;;;;;;4872266;29;20044;-75
2021/11/17 15:33:26;;;;;;;4.38;3.20;;;17.80;96.70;;;;;;4887374;29;20559;-75
2021/11/17 15:35:54;;;;;;;6.20;3.30;;;17.60;96.70;;;;;;4888106;29;20049;-75
2021/11/17 15:38:22;;;;;;;4.63;2.92;;;17.40;96.70;;;;;;4883044;29;20084;-75
2021/11/17 15:40:52;;;;;;;4.70;3.20;;;17.10;96.70;;;;;;4874634;29;20436;-75
2021/11/17 15:43:22;;;;;;;4.82;3.05;;;17.00;96.70;;;;;;4889747;29;20047;-75
2021/11/17 15:45:50;;;;;;;6.03;3.30;;;16.80;96.70;;;;;;4873123;29;20079;-75
2021/11/17 15:48:21;;;;;;;5.70;3.60;;;16.60;96.70;;;;;;4870762;29;20471;-75
2021/11/17 15:50:53;;;;;;;6.00;3.10;;;16.50;96.70;;;;;;4873037;29;20055;-75
2021/11/17 15:53:22;;;;;;;9.27;5.70;;;16.40;96.70;;;;;;4889956;29;20051;-75
2021/11/17 15:55:50;;;;;;;13.50;9.85;;;16.30;96.70;;;;;;4872342;29;20041;-75
2021/11/17 15:58:19;;;;;;;14.60;10.00;;;16.20;96.70;;;;;;4873532;29;20040;-75
2021/11/17 16:00:48;;;;;;;14.07;9.88;;;16.20;96.70;;;;;;4872543;29;20055;-75
2021/11/17 16:03:17;;;;;;;16.02;10.30;;;16.10;96.70;;;;;;4884524;29;20056;-75
2021/11/17 16:05:47;;;;;;;29.38;20.58;;;16.10;96.70;;;;;;4871761;29;20047;-75
2021/11/17 16:08:17;;;;;;;21.50;15.75;;;16.00;96.70;;;;;;4887547;29;20117;-75